Pendergrass, Georgia
Current Conditions -  °F | °C
As of 5:55 AM on Thursday 27 Nov 2014 (Local Time) from K19A Reporting Station
Scattered Clouds Scattered Clouds  
Wind Chill: 37°   Ceiling: Unl
Heat Index: 43°   Visibility: 10mi
Dew Point: 32°   Wind: 9mph
Humidity: 66%   Direction: 290°WNW
Pressure: 30.1"   Gusts: 18mph
Location:  34.16°N, 83.68°W
Report Text: K19A 271055Z AUTO 29008G16KT 10SM SCT047 06/00 A3010 RMK AO2
Loading
Personal Weather Stations






























Interactive Weather Map New forecast layout! Learn more

10-Day Weather Forecast

Advertisements
Track Severe Weather on mobile